Port Kent, New York
Current Conditions -  °F | °C
As of 4:53 PM on Friday 19 Dec 2014 (Local Time) from KPBG Reporting Station
Clear Clear  
Wind Chill: 16°   Ceiling: Unl
Heat Index: 22°   Visibility: 10mi
Dew Point: 15°   Wind: 5mph
Humidity: 75%   Direction: 340°NNW
Pressure: 30.15"   Gusts: NA
Location:  44.53°N, 73.41°W
Report Text: KPBG 192153Z AUTO 34004KT 10SM CLR M06/M09 A3015 RMK AO2 SLP213 T10561094
Loading
Personal Weather Stations






























Interactive Weather Map New forecast layout! Learn more

10-Day Weather Forecast

Advertisements
Track Severe Weather on mobile